createdAt,value
2018-10-02T00:01:09.107Z,19.00
2018-10-02T00:03:50.475Z,19.00
2018-10-02T00:06:30.980Z,19.00
2018-10-02T00:09:13.263Z,19.00
2018-10-02T00:11:58.879Z,18.90
2018-10-02T00:14:40.280Z,18.90
2018-10-02T00:17:21.687Z,18.80
2018-10-02T00:20:03.090Z,18.80
2018-10-02T00:22:44.493Z,18.80
2018-10-02T00:25:25.064Z,18.80
2018-10-02T00:28:05.601Z,18.80
2018-10-02T00:30:46.951Z,18.80
2018-10-02T00:33:28.381Z,18.80
2018-10-02T00:36:09.831Z,18.80
2018-10-02T00:38:51.167Z,18.80
2018-10-02T00:41:32.639Z,18.70
2018-10-02T00:44:13.999Z,18.70
2018-10-02T00:46:55.372Z,18.60
2018-10-02T00:49:36.823Z,18.60
2018-10-02T00:52:18.300Z,18.60
2018-10-02T00:54:58.827Z,18.60
2018-10-02T00:57:39.259Z,18.60
2018-10-02T01:00:19.788Z,18.60
2018-10-02T01:03:01.167Z,18.60
2018-10-02T01:05:41.699Z,18.60
2018-10-02T01:08:23.144Z,18.60
2018-10-02T01:11:03.736Z,18.60
2018-10-02T01:13:45.040Z,18.60
2018-10-02T01:16:25.532Z,18.60
2018-10-02T01:19:05.940Z,18.60
2018-10-02T01:21:46.555Z,18.60
2018-10-02T01:24:27.043Z,18.60
2018-10-02T01:27:07.955Z,18.50
2018-10-02T01:29:48.927Z,18.50
2018-10-02T01:32:30.495Z,18.40
2018-10-02T01:35:11.879Z,18.30
2018-10-02T01:37:53.417Z,18.30
2018-10-02T01:40:34.672Z,18.20
2018-10-02T01:43:16.156Z,18.10
2018-10-02T01:45:57.568Z,18.10
2018-10-02T01:48:38.096Z,18.00
2018-10-02T01:51:18.608Z,17.90
2018-10-02T01:53:59.116Z,17.90
2018-10-02T01:56:40.531Z,17.80
2018-10-02T01:59:21.925Z,17.70
2018-10-02T02:02:03.367Z,17.60
2018-10-02T02:04:43.891Z,17.60
2018-10-02T02:07:24.491Z,17.50
2018-10-02T02:10:06.243Z,17.50
2018-10-02T02:12:47.402Z,17.50
2018-10-02T02:15:28.813Z,17.50
2018-10-02T02:18:09.303Z,17.40
2018-10-02T02:20:49.764Z,17.40
2018-10-02T02:23:30.350Z,17.30
2018-10-02T02:26:10.883Z,17.30
2018-10-02T02:28:51.419Z,17.20
2018-10-02T02:31:32.805Z,17.20
2018-10-02T02:34:13.405Z,17.20
2018-10-02T02:36:54.045Z,17.10
2018-10-02T02:39:35.467Z,17.10
2018-10-02T02:42:16.900Z,17.10
2018-10-02T02:44:57.463Z,17.10
2018-10-02T02:47:43.777Z,17.00
2018-10-02T02:50:30.220Z,17.00
2018-10-02T02:53:16.868Z,17.00
2018-10-02T02:55:58.104Z,17.00
2018-10-02T02:58:38.568Z,17.00
2018-10-02T03:01:19.136Z,17.00
2018-10-02T03:03:59.920Z,17.00
2018-10-02T03:06:41.240Z,17.00
2018-10-02T03:09:22.600Z,17.00
2018-10-02T03:12:03.075Z,17.10
2018-10-02T03:14:43.510Z,17.10
2018-10-02T03:17:24.135Z,17.10
2018-10-02T03:20:05.364Z,17.10
2018-10-02T03:22:46.835Z,17.10
2018-10-02T03:25:27.292Z,17.10
2018-10-02T03:28:08.264Z,17.20
2018-10-02T03:30:49.412Z,17.20
2018-10-02T03:33:30.668Z,17.30
2018-10-02T03:36:11.368Z,17.30
2018-10-02T03:38:52.772Z,17.30
2018-10-02T03:41:34.232Z,17.30
2018-10-02T03:44:15.599Z,17.30
2018-10-02T03:46:56.111Z,17.30
2018-10-02T03:49:36.608Z,17.30
2018-10-02T03:52:17.147Z,17.20
2018-10-02T03:54:58.653Z,17.20
2018-10-02T03:57:40.055Z,17.30
2018-10-02T04:00:20.555Z,17.30
2018-10-02T04:03:01.155Z,17.30
2018-10-02T04:05:43.220Z,17.20
2018-10-02T04:08:23.997Z,17.30
2018-10-02T04:11:04.747Z,17.30
2018-10-02T04:13:46.002Z,17.30
2018-10-02T04:16:26.477Z,17.30
2018-10-02T04:19:07.196Z,17.30
2018-10-02T04:21:48.603Z,17.30
2018-10-02T04:24:29.064Z,17.30
2018-10-02T04:27:09.564Z,17.30
2018-10-02T04:29:51.068Z,17.30
2018-10-02T04:32:32.460Z,17.20
2018-10-02T04:35:12.944Z,17.20
2018-10-02T04:37:53.596Z,17.20
2018-10-02T04:40:34.149Z,17.10
2018-10-02T04:43:15.515Z,17.10
2018-10-02T04:45:56.079Z,17.10
2018-10-02T04:48:36.534Z,17.10
2018-10-02T04:51:17.115Z,17.10
2018-10-02T04:53:57.583Z,17.00
2018-10-02T04:56:38.096Z,17.10
2018-10-02T04:59:18.684Z,17.00
2018-10-02T05:02:00.080Z,17.00
2018-10-02T05:04:40.528Z,17.00
2018-10-02T05:07:21.307Z,17.10
2018-10-02T05:10:02.725Z,17.10
2018-10-02T05:12:44.116Z,17.10
2018-10-02T05:15:24.610Z,17.10
2018-10-02T05:18:05.229Z,17.10
2018-10-02T05:20:46.693Z,17.10
2018-10-02T05:23:28.026Z,17.10
2018-10-02T05:26:08.627Z,17.00
2018-10-02T05:28:50.020Z,17.00
2018-10-02T05:31:30.531Z,16.90
2018-10-02T05:34:11.188Z,16.80
2018-10-02T05:36:52.586Z,16.80
2018-10-02T05:39:33.099Z,16.70
2018-10-02T05:42:14.497Z,16.70
2018-10-02T05:44:55.889Z,16.60
2018-10-02T05:47:37.306Z,16.50
2018-10-02T05:50:17.916Z,16.50
2018-10-02T05:52:59.241Z,16.50
2018-10-02T05:55:39.739Z,16.50
2018-10-02T05:58:20.326Z,16.50
2018-10-02T06:01:01.866Z,16.50
2018-10-02T06:03:43.022Z,16.50
2018-10-02T06:06:23.884Z,16.50
2018-10-02T06:09:05.352Z,16.60
2018-10-02T06:11:45.867Z,16.60
2018-10-02T06:14:27.267Z,16.70
2018-10-02T06:17:07.751Z,16.80
2018-10-02T06:19:49.179Z,16.80
2018-10-02T06:22:30.566Z,16.90
2018-10-02T06:25:12.636Z,17.00
2018-10-02T06:27:53.569Z,17.10
2018-10-02T06:30:34.032Z,17.10
2018-10-02T06:33:14.546Z,17.20
2018-10-02T06:35:55.947Z,17.20
2018-10-02T06:38:36.686Z,17.30
2018-10-02T06:41:18.796Z,17.50
2018-10-02T06:43:59.579Z,17.60
2018-10-02T06:46:40.328Z,17.70
2018-10-02T06:49:21.596Z,17.80
2018-10-02T06:52:03.018Z,18.00
2018-10-02T06:54:44.259Z,18.20
2018-10-02T06:57:25.572Z,18.30
2018-10-02T07:00:06.581Z,18.30
2018-10-02T07:02:47.858Z,18.40
2018-10-02T07:05:29.363Z,18.40
2018-10-02T07:08:10.770Z,18.40
2018-10-02T07:10:53.041Z,18.50
2018-10-02T07:13:33.713Z,18.50
2018-10-02T07:16:15.045Z,18.50
2018-10-02T07:18:55.544Z,18.60
2018-10-02T07:21:36.149Z,18.70
2018-10-02T07:24:17.576Z,18.90
2018-10-02T07:26:58.177Z,19.10
2018-10-02T07:29:39.535Z,19.30
2018-10-02T07:32:20.990Z,19.50
2018-10-02T07:35:02.411Z,19.60
2018-10-02T07:37:43.749Z,19.80
2018-10-02T07:40:24.295Z,19.90
2018-10-02T07:43:04.909Z,20.00
2018-10-02T07:45:46.209Z,20.30
2018-10-02T07:48:27.343Z,20.50
2018-10-02T07:51:08.320Z,20.70
2018-10-02T07:53:49.693Z,20.80
2018-10-02T07:56:31.065Z,20.70
2018-10-02T07:59:11.724Z,20.70
2018-10-02T08:01:53.216Z,20.90
2018-10-02T08:04:34.799Z,21.10
2018-10-02T08:07:16.120Z,21.40
2018-10-02T08:09:57.628Z,21.60
2018-10-02T08:12:39.004Z,21.90
2018-10-02T08:15:19.568Z,22.10
2018-10-02T08:18:00.999Z,22.30
2018-10-02T08:20:43.315Z,22.50
2018-10-02T08:23:24.002Z,22.80
2018-10-02T08:26:04.511Z,23.10
2018-10-02T08:28:45.132Z,23.30
2018-10-02T08:31:25.683Z,23.60
2018-10-02T08:34:06.959Z,23.90
2018-10-02T08:36:47.513Z,24.30
2018-10-02T08:39:28.023Z,24.60
2018-10-02T08:42:09.535Z,25.10
2018-10-02T08:44:51.361Z,25.60
2018-10-02T08:47:32.178Z,26.10
2018-10-02T08:50:14.161Z,26.60
2018-10-02T08:52:55.163Z,27.10
2018-10-02T08:55:36.579Z,27.60
2018-10-02T08:58:18.020Z,28.10
2018-10-02T09:00:59.681Z,28.50
2018-10-02T09:03:41.084Z,28.90
2018-10-02T09:06:21.631Z,29.30
2018-10-02T09:09:03.107Z,29.60
2018-10-02T09:11:44.415Z,29.70
2018-10-02T09:14:24.939Z,29.50
2018-10-02T09:17:05.452Z,29.30
2018-10-02T09:19:46.903Z,28.90
2018-10-02T09:22:28.133Z,28.30
2018-10-02T09:25:09.462Z,27.80
2018-10-02T09:27:50.036Z,27.20
2018-10-02T09:30:36.582Z,26.80
2018-10-02T09:33:22.905Z,26.40
2018-10-02T09:36:09.336Z,26.10
2018-10-02T09:38:55.845Z,25.90
2018-10-02T09:41:42.312Z,25.70
2018-10-02T09:44:23.460Z,25.60
2018-10-02T09:47:04.015Z,25.60
2018-10-02T09:49:45.580Z,25.50
2018-10-02T09:52:26.864Z,25.30
2018-10-02T09:55:08.305Z,25.30
2018-10-02T09:57:49.736Z,25.30
2018-10-02T10:00:36.184Z,25.20
2018-10-02T10:03:17.559Z,25.00
2018-10-02T10:05:58.049Z,25.00
2018-10-02T10:08:38.540Z,25.00
2018-10-02T10:11:20.020Z,25.00
2018-10-02T10:14:01.733Z,25.00
2018-10-02T10:16:44.169Z,25.00
2018-10-02T10:19:25.479Z,25.00
2018-10-02T10:22:06.079Z,25.00
2018-10-02T10:24:47.280Z,25.10
2018-10-02T10:27:28.115Z,25.10
2018-10-02T10:30:09.480Z,25.00
2018-10-02T10:32:50.118Z,24.90
2018-10-02T10:35:31.513Z,24.90
2018-10-02T10:38:12.078Z,24.90
2018-10-02T10:40:53.658Z,24.90
2018-10-02T10:43:35.147Z,24.70
2018-10-02T10:46:16.596Z,24.70
2018-10-02T10:48:58.031Z,24.70
2018-10-02T10:51:38.728Z,24.70
2018-10-02T10:54:20.067Z,24.70
2018-10-02T10:57:00.537Z,24.80
2018-10-02T10:59:41.116Z,24.90
2018-10-02T11:02:22.516Z,25.00
2018-10-02T11:05:03.077Z,25.10
2018-10-02T11:07:44.620Z,25.20
2018-10-02T11:10:25.965Z,25.20
2018-10-02T11:13:06.500Z,25.20
2018-10-02T11:15:47.065Z,25.20
2018-10-02T11:18:28.430Z,25.30
2018-10-02T11:21:09.103Z,25.40
2018-10-02T11:23:51.515Z,25.40
2018-10-02T11:26:33.436Z,25.60
2018-10-02T11:29:14.562Z,25.80
2018-10-02T11:31:56.379Z,25.90
2018-10-02T11:34:38.152Z,26.00
2018-10-02T11:37:19.100Z,26.20
2018-10-02T11:39:59.677Z,26.30
2018-10-02T11:42:41.061Z,26.40
2018-10-02T11:45:22.496Z,26.50
2018-10-02T11:48:03.002Z,26.70
2018-10-02T11:50:43.519Z,26.80
2018-10-02T11:53:24.894Z,26.90
2018-10-02T11:56:05.488Z,27.00
2018-10-02T11:58:46.887Z,27.00
2018-10-02T12:01:28.434Z,27.10
2018-10-02T12:04:09.619Z,27.10
2018-10-02T12:06:50.461Z,27.10
2018-10-02T12:09:31.560Z,26.90
2018-10-02T12:12:12.195Z,26.70
2018-10-02T12:14:53.562Z,26.70
2018-10-02T12:17:34.091Z,26.50
2018-10-02T12:20:14.804Z,26.40
2018-10-02T12:22:56.343Z,26.30
2018-10-02T12:25:37.747Z,26.30
2018-10-02T12:28:18.264Z,26.40
2018-10-02T12:30:59.692Z,26.40
2018-10-02T12:33:40.171Z,26.40
2018-10-02T12:36:21.575Z,26.40
2018-10-02T12:39:03.197Z,26.40
2018-10-02T12:41:44.552Z,26.50
2018-10-02T12:44:25.996Z,26.50
2018-10-02T12:47:06.659Z,26.60
2018-10-02T12:49:47.971Z,26.70
2018-10-02T12:52:29.498Z,26.80
2018-10-02T12:55:10.896Z,27.00
2018-10-02T12:57:52.280Z,27.10
2018-10-02T13:00:32.825Z,27.00
2018-10-02T13:03:15.104Z,27.10
2018-10-02T13:05:56.555Z,27.10
2018-10-02T13:08:37.989Z,27.10
2018-10-02T13:11:19.419Z,27.20
2018-10-02T13:14:00.731Z,27.20
2018-10-02T13:16:42.210Z,27.20
2018-10-02T13:19:23.709Z,27.10
2018-10-02T13:22:05.207Z,27.20
2018-10-02T13:24:46.594Z,27.20
2018-10-02T13:27:28.139Z,27.20
2018-10-02T13:30:09.433Z,27.20
2018-10-02T13:32:50.027Z,27.20
2018-10-02T13:35:31.374Z,27.20
2018-10-02T13:38:11.943Z,27.20
2018-10-02T13:40:53.329Z,27.20
2018-10-02T13:43:34.690Z,27.30
2018-10-02T13:46:15.151Z,27.40
2018-10-02T13:48:55.624Z,27.50
2018-10-02T13:51:36.131Z,27.50
2018-10-02T13:54:17.703Z,27.50
2018-10-02T13:56:59.001Z,27.50
2018-10-02T13:59:40.385Z,27.40
2018-10-02T14:02:21.011Z,27.40
2018-10-02T14:05:01.526Z,27.30
2018-10-02T14:07:42.944Z,27.10
2018-10-02T14:10:24.368Z,27.10
2018-10-02T14:13:05.704Z,27.00
2018-10-02T14:15:46.241Z,26.80
2018-10-02T14:18:27.612Z,26.50
2018-10-02T14:21:08.224Z,26.50
2018-10-02T14:23:49.611Z,26.50
2018-10-02T14:26:30.237Z,26.40
2018-10-02T14:29:11.620Z,26.30
2018-10-02T14:31:53.138Z,26.30
2018-10-02T14:34:34.459Z,26.30
2018-10-02T14:37:15.992Z,26.30
2018-10-02T14:39:57.359Z,26.40
2018-10-02T14:42:38.860Z,26.40
2018-10-02T14:45:20.299Z,26.30
2018-10-02T14:48:01.610Z,26.30
2018-10-02T14:50:42.975Z,26.30
2018-10-02T14:53:23.452Z,26.20
2018-10-02T14:56:03.944Z,26.20
2018-10-02T14:58:44.448Z,26.20
2018-10-02T15:01:25.879Z,26.10
2018-10-02T15:04:06.364Z,26.00
2018-10-02T15:06:47.071Z,25.90
2018-10-02T15:09:28.560Z,25.80
2018-10-02T15:12:09.905Z,25.80
2018-10-02T15:14:50.460Z,25.70
2018-10-02T15:17:31.776Z,25.70
2018-10-02T15:20:13.195Z,25.60
2018-10-02T15:22:54.604Z,25.60
2018-10-02T15:25:36.039Z,25.60
2018-10-02T15:28:16.500Z,25.50
2018-10-02T15:30:56.894Z,25.50
2018-10-02T15:33:37.882Z,25.50
2018-10-02T15:36:18.979Z,25.40
2018-10-02T15:39:00.416Z,25.40
2018-10-02T15:41:41.807Z,25.30
2018-10-02T15:44:22.239Z,25.20
2018-10-02T15:47:03.619Z,25.10
2018-10-02T15:49:44.975Z,25.00
2018-10-02T15:52:25.544Z,25.00
2018-10-02T15:55:05.984Z,24.90
2018-10-02T15:57:46.521Z,24.80
2018-10-02T16:00:27.918Z,24.80
2018-10-02T16:03:10.186Z,24.70
2018-10-02T16:05:50.780Z,24.70
2018-10-02T16:08:31.356Z,24.70
2018-10-02T16:11:11.833Z,24.60
2018-10-02T16:13:53.311Z,24.60
2018-10-02T16:16:33.907Z,24.60
2018-10-02T16:19:15.147Z,24.50
2018-10-02T16:21:55.847Z,24.40
2018-10-02T16:24:37.933Z,24.30
2018-10-02T16:27:18.681Z,24.30
2018-10-02T16:29:59.214Z,24.20
2018-10-02T16:32:40.578Z,24.20
2018-10-02T16:35:21.888Z,24.20
2018-10-02T16:38:02.677Z,24.10
2018-10-02T16:40:43.980Z,24.10
2018-10-02T16:43:24.584Z,24.10
2018-10-02T16:46:05.009Z,24.10
2018-10-02T16:48:46.446Z,24.00
2018-10-02T16:51:27.814Z,23.90
2018-10-02T16:54:08.416Z,23.90
2018-10-02T16:56:48.935Z,23.80
2018-10-02T16:59:30.311Z,23.80
2018-10-02T17:02:11.023Z,23.70
2018-10-02T17:04:52.358Z,23.60
2018-10-02T17:07:33.728Z,23.60
2018-10-02T17:10:15.047Z,23.50
2018-10-02T17:12:55.511Z,23.50
2018-10-02T17:15:35.952Z,23.40
2018-10-02T17:18:16.465Z,23.40
2018-10-02T17:20:56.983Z,23.30
2018-10-02T17:23:37.506Z,23.30
2018-10-02T17:26:19.007Z,23.30
2018-10-02T17:28:59.579Z,23.20
2018-10-02T17:31:41.024Z,23.20
2018-10-02T17:34:21.567Z,23.10
2018-10-02T17:37:02.060Z,23.10
2018-10-02T17:39:42.521Z,23.00
2018-10-02T17:42:23.875Z,22.90
2018-10-02T17:45:05.248Z,22.90
2018-10-02T17:47:45.767Z,22.90
2018-10-02T17:50:26.323Z,22.80
2018-10-02T17:53:06.855Z,22.80
2018-10-02T17:55:48.259Z,22.70
2018-10-02T17:58:28.751Z,22.60
2018-10-02T18:01:10.167Z,22.60
2018-10-02T18:03:50.752Z,22.50
2018-10-02T18:06:31.223Z,22.40
2018-10-02T18:09:11.796Z,22.40
2018-10-02T18:11:52.218Z,22.40
2018-10-02T18:14:32.984Z,22.40
2018-10-02T18:17:14.264Z,22.30
2018-10-02T18:19:54.800Z,22.30
2018-10-02T18:22:35.243Z,22.30
2018-10-02T18:25:15.772Z,22.20
2018-10-02T18:27:56.336Z,22.10
2018-10-02T18:30:37.739Z,22.10
2018-10-02T18:33:18.304Z,22.10
2018-10-02T18:35:59.725Z,22.10
2018-10-02T18:38:41.173Z,22.10
2018-10-02T18:41:22.755Z,22.10
2018-10-02T18:44:04.191Z,22.00
2018-10-02T18:46:45.568Z,22.00
2018-10-02T18:49:27.039Z,22.00
2018-10-02T18:52:08.404Z,22.00
2018-10-02T18:54:48.995Z,22.00
2018-10-02T18:57:29.463Z,22.00
2018-10-02T19:00:10.824Z,22.00
2018-10-02T19:02:52.207Z,22.00
2018-10-02T19:05:32.900Z,22.00
2018-10-02T19:08:14.219Z,22.00
2018-10-02T19:10:59.919Z,22.00
2018-10-02T19:13:41.236Z,22.00
2018-10-02T19:16:34.510Z,22.00
2018-10-02T19:19:20.936Z,22.00
2018-10-02T19:22:02.273Z,22.00
2018-10-02T19:24:42.922Z,22.00
2018-10-02T19:27:24.288Z,22.00
2018-10-02T19:30:09.923Z,21.90
2018-10-02T19:32:51.252Z,21.80
2018-10-02T19:35:32.635Z,21.80
2018-10-02T19:38:18.816Z,21.80
2018-10-02T19:40:59.674Z,21.70
2018-10-02T19:43:41.060Z,21.70
2018-10-02T19:46:25.231Z,21.70
2018-10-02T19:49:06.092Z,21.70
2018-10-02T19:51:51.780Z,21.70
2018-10-02T19:54:33.056Z,21.60
2018-10-02T19:57:14.477Z,21.50
2018-10-02T19:59:54.972Z,21.50
2018-10-02T20:02:36.428Z,21.50
2018-10-02T20:05:16.946Z,21.50
2018-10-02T20:07:58.335Z,21.50
2018-10-02T20:10:38.921Z,21.50
2018-10-02T20:13:20.418Z,21.40
2018-10-02T20:16:00.896Z,21.40
2018-10-02T20:18:41.400Z,21.40
2018-10-02T20:21:22.801Z,21.40
2018-10-02T20:24:03.728Z,21.30
2018-10-02T20:26:44.847Z,21.30
2018-10-02T20:29:25.483Z,21.20
2018-10-02T20:32:06.992Z,21.20
2018-10-02T20:34:48.719Z,21.20
2018-10-02T20:37:30.091Z,21.10
2018-10-02T20:40:11.431Z,21.10
2018-10-02T20:42:53.214Z,21.10
2018-10-02T20:45:34.564Z,21.00
2018-10-02T20:48:15.986Z,21.00
2018-10-02T20:50:56.543Z,21.00
2018-10-02T20:53:37.343Z,20.90
2018-10-02T20:56:18.575Z,20.90
2018-10-02T20:59:00.179Z,20.80
2018-10-02T21:01:41.651Z,20.80
2018-10-02T21:04:23.100Z,20.80
2018-10-02T21:07:04.532Z,20.80
2018-10-02T21:09:45.977Z,20.80
2018-10-02T21:12:27.295Z,20.80
2018-10-02T21:15:08.898Z,20.80
2018-10-02T21:17:50.352Z,20.80
2018-10-02T21:20:32.027Z,20.80
2018-10-02T21:23:13.248Z,20.80
2018-10-02T21:25:54.971Z,20.70
2018-10-02T21:28:35.883Z,20.80
2018-10-02T21:31:17.354Z,20.80
2018-10-02T21:33:57.955Z,20.70
2018-10-02T21:36:39.351Z,20.70
2018-10-02T21:39:19.863Z,20.80
2018-10-02T21:42:01.220Z,20.80
2018-10-02T21:44:41.714Z,20.80
2018-10-02T21:47:22.232Z,20.80
2018-10-02T21:50:02.771Z,20.70
2018-10-02T21:52:43.376Z,20.70
2018-10-02T21:55:24.771Z,20.70
2018-10-02T21:58:06.160Z,20.60
2018-10-02T22:00:46.683Z,20.60
2018-10-02T22:03:28.121Z,20.60
2018-10-02T22:06:09.431Z,20.70
2018-10-02T22:08:50.790Z,20.70
2018-10-02T22:11:31.364Z,20.70
2018-10-02T22:14:11.831Z,20.70
2018-10-02T22:16:52.273Z,20.70
2018-10-02T22:19:32.784Z,20.70
2018-10-02T22:22:13.368Z,20.70
2018-10-02T22:24:54.776Z,20.70
2018-10-02T22:27:36.383Z,20.70
2018-10-02T22:30:17.719Z,20.70
2018-10-02T22:32:58.175Z,20.70
2018-10-02T22:35:39.630Z,20.70
2018-10-02T22:38:20.136Z,20.70
2018-10-02T22:41:00.804Z,20.70
2018-10-02T22:43:42.149Z,20.70
2018-10-02T22:46:23.519Z,20.70
2018-10-02T22:49:04.952Z,20.70
2018-10-02T22:51:46.452Z,20.70
2018-10-02T22:54:27.796Z,20.70
2018-10-02T22:57:08.420Z,20.70
2018-10-02T22:59:49.832Z,20.70
2018-10-02T23:02:30.441Z,20.70
2018-10-02T23:05:11.723Z,20.70
2018-10-02T23:07:52.239Z,20.60
2018-10-02T23:10:33.552Z,20.60
2018-10-02T23:13:15.122Z,20.50
2018-10-02T23:15:56.535Z,20.50
2018-10-02T23:18:37.192Z,20.40
2018-10-02T23:21:18.430Z,20.40
2018-10-02T23:23:59.847Z,20.40
2018-10-02T23:26:40.393Z,20.40
2018-10-02T23:29:20.969Z,20.50
2018-10-02T23:32:01.583Z,20.50
2018-10-02T23:34:43.034Z,20.50
2018-10-02T23:37:24.499Z,20.60
2018-10-02T23:40:05.933Z,20.60
2018-10-02T23:42:46.403Z,20.60
2018-10-02T23:45:27.812Z,20.60
2018-10-02T23:48:09.202Z,20.70
2018-10-02T23:50:49.667Z,20.70
2018-10-02T23:53:30.152Z,20.60
2018-10-02T23:56:10.591Z,20.60
2018-10-02T23:58:51.083Z,20.60
